createdAt,value
2022-12-25T00:00:28.242Z,8.36
2022-12-25T00:01:35.718Z,8.37
2022-12-25T00:02:41.986Z,8.39
2022-12-25T00:03:46.149Z,8.36
2022-12-25T00:04:51.497Z,8.38
2022-12-25T00:06:00.133Z,8.40
2022-12-25T00:07:04.101Z,8.39
2022-12-25T00:08:07.739Z,8.39
2022-12-25T00:09:12.103Z,8.41
2022-12-25T00:10:17.976Z,8.42
2022-12-25T00:11:22.549Z,8.42
2022-12-25T00:12:29.988Z,8.42
2022-12-25T00:13:35.468Z,8.43
2022-12-25T00:14:43.070Z,8.43
2022-12-25T00:15:49.481Z,8.39
2022-12-25T00:16:53.204Z,8.43
2022-12-25T00:17:57.003Z,8.39
2022-12-25T00:19:01.423Z,8.43
2022-12-25T00:20:07.879Z,8.43
2022-12-25T00:21:15.892Z,8.43
2022-12-25T00:22:21.712Z,8.41
2022-12-25T00:23:26.251Z,8.42
2022-12-25T00:24:31.572Z,8.40
2022-12-25T00:25:40.751Z,8.38
2022-12-25T00:26:44.704Z,8.35
2022-12-25T00:27:48.333Z,8.36
2022-12-25T00:28:58.232Z,8.36
2022-12-25T00:30:15.407Z,8.33
2022-12-25T00:31:26.397Z,8.26
2022-12-25T00:32:30.493Z,8.26
2022-12-25T00:33:40.507Z,8.22
2022-12-25T00:34:45.868Z,8.20
2022-12-25T00:36:02.052Z,8.17
2022-12-25T00:37:08.249Z,8.14
2022-12-25T00:38:15.975Z,8.14
2022-12-25T00:39:20.974Z,8.14
2022-12-25T00:40:28.580Z,8.16
2022-12-25T00:41:51.819Z,8.17
2022-12-25T00:42:55.368Z,8.17
2022-12-25T00:44:00.363Z,8.19
2022-12-25T00:45:08.807Z,8.19
2022-12-25T00:46:17.922Z,8.19
2022-12-25T00:47:22.894Z,8.18
2022-12-25T00:48:34.940Z,8.17
2022-12-25T00:49:39.051Z,8.14
2022-12-25T00:52:04.787Z,8.16
2022-12-25T00:53:10.843Z,8.16
2022-12-25T00:54:14.986Z,8.16
2022-12-25T00:55:20.028Z,8.15
2022-12-25T00:56:23.994Z,8.15
2022-12-25T00:57:38.279Z,8.14
2022-12-25T00:58:57.833Z,8.14
2022-12-25T01:00:05.341Z,8.13
2022-12-25T01:01:16.501Z,8.13
2022-12-25T01:02:24.365Z,8.11
2022-12-25T01:03:30.161Z,8.02
2022-12-25T01:04:37.295Z,7.98
2022-12-25T01:05:41.896Z,7.91
2022-12-25T01:06:45.970Z,7.86
2022-12-25T01:07:49.806Z,7.86
2022-12-25T01:09:12.196Z,7.85
2022-12-25T01:10:24.228Z,7.88
2022-12-25T01:11:33.586Z,7.87
2022-12-25T01:12:43.864Z,7.77
2022-12-25T01:13:47.772Z,7.77
2022-12-25T01:14:53.029Z,7.76
2022-12-25T01:15:57.599Z,7.79
2022-12-25T01:17:01.351Z,7.77
2022-12-25T01:18:07.861Z,7.75
2022-12-25T01:19:13.376Z,7.78
2022-12-25T01:20:18.678Z,7.83
2022-12-25T01:21:36.675Z,7.86
2022-12-25T01:22:47.446Z,7.82
2022-12-25T01:23:53.563Z,7.82
2022-12-25T01:24:58.145Z,7.88
2022-12-25T01:26:06.530Z,7.91
2022-12-25T01:27:11.638Z,7.92
2022-12-25T01:28:16.694Z,7.88
2022-12-25T01:29:20.865Z,7.92
2022-12-25T01:30:35.283Z,7.92
2022-12-25T01:31:38.971Z,7.93
2022-12-25T01:32:42.838Z,7.95
2022-12-25T01:33:47.950Z,7.97
2022-12-25T01:34:56.219Z,7.99
2022-12-25T01:36:04.921Z,8.02
2022-12-25T02:47:52.233Z,7.90
2022-12-25T02:49:23.802Z,7.96
2022-12-25T02:50:46.565Z,7.86
2022-12-25T02:52:24.771Z,7.91
2022-12-25T02:53:53.757Z,7.95
2022-12-25T02:55:33.154Z,8.00
2022-12-25T02:56:58.491Z,8.04
2022-12-25T02:58:27.660Z,8.08
2022-12-25T02:59:55.575Z,8.11
2022-12-25T03:02:09.173Z,8.15
2022-12-25T03:22:25.744Z,8.05
